Time;durP1;ratioP1;P1;durP2;ratioP2;P2;SDS_P1;SDS_P2;PMS_P1;PMS_P2;Temp;Humidity;BMP_temperature;BMP_pressure;BME280_temperature;BME280_humidity;BME280_pressure;Samples;Min_cycle;Max_cycle;Signal;HPM_P1;HPM_P2
2021/06/23 00:00:15;;;;;;;17.30;7.22;;;;;;;24.78;65.54;94899.91;5067833;28;20035;-78
2021/06/23 00:02:41;;;;;;;19.85;6.97;;;;;;;24.76;65.81;94896.94;5067291;28;20029;-77
2021/06/23 00:05:06;;;;;;;19.85;6.68;;;;;;;24.73;65.42;94895.25;5067447;28;20032;-78
2021/06/23 00:07:32;;;;;;;29.08;6.75;;;;;;;24.75;65.10;94900.94;5067441;28;20040;-78
2021/06/23 00:09:57;;;;;;;17.63;6.82;;;;;;;24.69;65.03;94903.75;5066522;28;20518;-78
2021/06/23 00:12:23;;;;;;;16.98;6.45;;;;;;;24.68;65.41;94907.75;5066889;28;20081;-77
2021/06/23 00:14:48;;;;;;;19.35;7.22;;;;;;;24.61;65.47;94916.53;5049403;28;20033;-78
2021/06/23 00:17:14;;;;;;;17.30;6.57;;;;;;;24.58;66.08;94914.84;5067155;28;20030;-78
2021/06/23 00:19:40;;;;;;;22.42;6.78;;;;;;;24.51;66.41;94920.91;5066010;28;20036;-78
2021/06/23 00:22:05;;;;;;;20.65;6.45;;;;;;;24.48;66.21;94921.19;5065405;28;20801;-78
2021/06/23 00:24:31;;;;;;;24.23;6.57;;;;;;;24.54;66.02;94921.84;5064876;28;20495;-77
2021/06/23 00:26:56;;;;;;;20.65;7.10;;;;;;;24.48;66.28;94927.41;5065914;28;20039;-78
2021/06/23 00:29:22;;;;;;;22.20;7.85;;;;;;;24.51;66.56;94933.81;5064656;28;20055;-78
2021/06/23 00:31:47;;;;;;;23.70;7.57;;;;;;;24.45;66.15;94928.44;5064270;28;20506;-78
2021/06/23 00:34:12;;;;;;;28.95;6.78;;;;;;;24.20;66.89;94895.53;5066107;28;20020;-78
2021/06/23 00:36:38;;;;;;;24.60;7.20;;;;;;;24.44;66.97;94931.69;5030041;28;20021;-78
2021/06/23 00:39:04;;;;;;;22.77;7.53;;;;;;;24.42;67.06;94931.47;5065342;28;20024;-78
2021/06/23 00:41:29;;;;;;;20.73;6.85;;;;;;;24.45;66.61;94933.16;5064584;28;20028;-78
2021/06/23 00:43:54;;;;;;;22.73;7.00;;;;;;;24.43;66.86;94924.75;5047539;28;20027;-78
2021/06/23 00:46:20;;;;;;;20.92;6.97;;;;;;;24.36;66.63;94917.16;5048641;28;20043;-78
2021/06/23 00:48:45;;;;;;;21.48;6.85;;;;;;;24.21;66.97;94908.66;5066843;28;20521;-79
2021/06/23 00:51:11;;;;;;;18.63;7.28;;;;;;;24.29;67.04;94915.00;5049231;28;20025;-79
2021/06/23 00:53:37;;;;;;;21.73;6.75;;;;;;;24.28;67.15;94916.25;5048757;28;20359;-79
2021/06/23 00:56:02;;;;;;;17.85;5.88;;;;;;;24.28;66.90;94918.97;5066712;28;20427;-79
2021/06/23 00:58:28;;;;;;;20.05;6.13;;;;;;;23.95;67.16;94864.88;5031957;28;20028;-79
2021/06/23 01:00:54;;;;;;;21.20;6.75;;;;;;;24.25;66.82;94920.03;5032472;28;20059;-80
2021/06/23 01:03:19;;;;;;;22.23;6.82;;;;;;;24.21;67.34;94911.38;5048754;28;20036;-78
2021/06/23 01:05:44;;;;;;;19.80;6.88;;;;;;;24.19;67.12;94905.72;5049370;28;20024;-79
2021/06/23 01:08:10;;;;;;;21.35;6.38;;;;;;;24.14;67.19;94909.25;5066427;28;20032;-79
2021/06/23 01:10:35;;;;;;;20.98;7.07;;;;;;;24.13;67.46;94899.59;5048810;28;20077;-79
2021/06/23 01:13:30;;;;;;;17.58;6.50;;;;;;;24.10;67.38;94903.34;5066490;28;20498;-79
2021/06/23 01:15:55;;;;;;;14.43;5.65;;;;;;;24.07;67.12;94898.94;5066575;28;20043;-78
2021/06/23 01:18:23;;;;;;;20.70;6.50;;;;;;;24.07;67.70;94893.47;5066084;28;20076;-78
2021/06/23 01:20:49;;;;;;;18.20;6.68;;;;;;;23.95;67.91;94897.59;5066617;28;20032;-79
2021/06/23 01:23:14;;;;;;;24.48;6.90;;;;;;;23.91;67.96;94891.69;5067771;28;20044;-79
2021/06/23 01:25:41;;;;;;;18.85;6.35;;;;;;;23.88;67.97;94887.28;5068995;28;20028;-79
2021/06/23 01:28:06;;;;;;;22.85;7.82;;;;;;;23.88;67.25;94898.19;5070686;28;20020;-79
2021/06/23 01:30:32;;;;;;;24.80;6.80;;;;;;;23.90;67.33;94890.22;5070529;28;20035;-79
2021/06/23 01:32:58;;;;;;;25.95;6.88;;;;;;;23.89;67.63;94888.03;5052403;28;20151;-79
2021/06/23 01:35:23;;;;;;;19.52;6.13;;;;;;;23.85;67.40;94884.09;5071434;28;20030;-79
2021/06/23 01:37:49;;;;;;;19.23;6.82;;;;;;;23.83;67.74;94883.91;5053674;28;20025;-80
2021/06/23 01:40:14;;;;;;;19.05;5.97;;;;;;;23.48;67.86;94843.91;5071245;28;20036;-79
2021/06/23 01:42:40;;;;;;;20.70;6.75;;;;;;;23.74;68.21;94886.97;5070834;28;20047;-79
2021/06/23 01:45:06;;;;;;;20.88;6.75;;;;;;;23.70;68.31;94881.81;5070772;28;20024;-79
2021/06/23 01:47:32;;;;;;;22.77;6.95;;;;;;;23.74;68.36;94900.63;5070562;28;20028;-79
2021/06/23 01:49:59;;;;;;;18.45;7.10;;;;;;;23.70;67.92;94900.16;5070817;28;20089;-78
2021/06/23 01:52:24;;;;;;;19.13;5.82;;;;;;;23.73;68.25;94918.22;5072509;28;20498;-79
2021/06/23 01:54:52;;;;;;;19.30;6.55;;;;;;;23.69;68.25;94906.84;5072294;28;20035;-80
2021/06/23 01:57:18;;;;;;;19.58;5.93;;;;;;;23.68;68.29;94905.41;5053682;28;20036;-79
2021/06/23 01:59:43;;;;;;;15.73;6.10;;;;;;;23.62;68.27;94901.97;5070348;28;20043;-78
2021/06/23 02:02:17;;;;;;;20.50;6.57;;;;;;;23.58;68.60;94912.41;5070295;28;20464;-79
2021/06/23 02:05:14;;;;;;;16.33;5.75;;;;;;;23.51;69.15;94912.97;5070108;28;20510;-79
2021/06/23 02:07:50;;;;;;;18.30;6.25;;;;;;;23.45;69.22;94918.50;5069833;28;20032;-79
2021/06/23 02:10:40;;;;;;;23.65;6.45;;;;;;;23.39;68.96;94922.53;5052551;28;20039;-78
2021/06/23 02:13:22;;;;;;;;;;;;;;;23.37;68.96;94935.19;5050725;28;20035;-79
2021/06/23 02:15:49;;;;;;;14.65;6.05;;;;;;;23.38;69.07;94926.50;5053334;28;19912;-80
2021/06/23 02:18:15;;;;;;;16.80;6.95;;;;;;;23.30;68.89;94931.03;5036377;28;20105;-78
2021/06/23 02:20:40;;;;;;;18.75;6.90;;;;;;;23.32;68.77;94928.56;5069700;28;20032;-78
2021/06/23 02:23:06;;;;;;;20.83;6.07;;;;;;;23.35;68.88;94926.78;5063197;28;20414;-79
2021/06/23 02:25:32;;;;;;;20.35;6.65;;;;;;;23.34;68.37;94926.03;5051419;28;20039;-79
2021/06/23 02:27:57;;;;;;;18.88;6.00;;;;;;;23.36;68.85;94922.81;5069446;28;20028;-77
2021/06/23 02:30:23;;;;;;;15.88;6.40;;;;;;;23.34;68.88;94926.03;5069354;28;20024;-77
2021/06/23 02:32:48;;;;;;;18.10;6.47;;;;;;;23.34;68.68;94926.03;5068423;28;20028;-77
2021/06/23 02:35:14;;;;;;;23.63;7.10;;;;;;;23.31;68.59;94932.53;5069267;28;20494;-76
2021/06/23 02:37:39;;;;;;;23.05;6.53;;;;;;;23.25;68.24;94922.94;5051464;28;20016;-77
2021/06/23 02:40:06;;;;;;;18.35;7.57;;;;;;;23.25;68.49;94934.56;5069325;28;20483;-77
2021/06/23 02:42:31;;;;;;;25.73;6.60;;;;;;;23.29;68.64;94935.03;5065947;28;20111;-77
2021/06/23 02:44:57;;;;;;;17.08;6.00;;;;;;;23.27;68.50;94939.50;5051608;28;20032;-76
2021/06/23 02:47:22;;;;;;;16.95;6.18;;;;;;;23.27;68.69;94932.06;5048278;28;20033;-84
2021/06/23 02:49:48;;;;;;;22.80;7.35;;;;;;;23.42;67.50;94941.34;5060970;28;20483;-80
2021/06/23 02:52:15;;;;;;;15.98;6.20;;;;;;;23.28;67.16;94911.75;5061450;28;20039;-78
2021/06/23 02:54:41;;;;;;;15.95;6.30;;;;;;;23.58;66.83;94945.13;5040378;28;20032;-79
2021/06/23 02:57:07;;;;;;;23.67;6.10;;;;;;;23.67;66.64;94953.00;5023915;28;20643;-83
2021/06/23 02:59:33;;;;;;;12.77;6.22;;;;;;;23.73;66.92;94945.47;5045108;28;20434;-83
2021/06/23 03:01:59;;;;;;;17.17;6.22;;;;;;;23.81;65.92;94960.00;5041619;28;20104;-84
2021/06/23 03:04:24;;;;;;;18.98;5.90;;;;;;;23.87;65.71;94966.91;5042167;28;20141;-85
2021/06/23 03:06:49;;;;;;;16.30;6.35;;;;;;;23.94;64.92;94961.56;5045812;28;20029;-84
2021/06/23 03:09:15;;;;;;;20.58;7.00;;;;;;;24.02;65.38;94967.19;5057425;28;20038;-83
2021/06/23 03:11:41;;;;;;;23.77;5.85;;;;;;;24.14;65.00;94958.38;5059273;28;20034;-82
2021/06/23 03:14:07;;;;;;;17.95;6.03;;;;;;;24.18;64.76;94964.25;5043049;28;20033;-81
2021/06/23 03:16:32;;;;;;;20.40;6.28;;;;;;;24.28;64.22;94968.09;5036506;28;20036;-81
2021/06/23 03:18:58;;;;;;;20.63;7.10;;;;;;;24.42;63.86;94977.88;5065167;28;20031;-81
2021/06/23 03:21:23;;;;;;;23.05;6.70;;;;;;;24.24;63.47;94934.91;5049606;28;20036;-80
2021/06/23 03:23:50;;;;;;;20.30;7.78;;;;;;;24.58;63.68;94971.44;5031983;28;20483;-80
2021/06/23 03:26:16;;;;;;;25.25;6.40;;;;;;;24.36;62.61;94933.53;5066917;28;20424;-85
2021/06/23 03:28:42;;;;;;;17.05;5.75;;;;;;;24.82;62.64;94982.28;5047803;28;20029;-79
2021/06/23 03:31:08;;;;;;;18.73;6.45;;;;;;;24.90;62.24;94990.09;5063358;28;20655;-80
2021/06/23 03:33:33;;;;;;;17.88;5.55;;;;;;;25.01;62.01;94989.94;5060389;28;20813;-85
2021/06/23 03:35:58;;;;;;;21.23;6.28;;;;;;;25.01;61.86;94978.28;5043687;28;20020;-84
2021/06/23 03:38:24;;;;;;;19.70;7.13;;;;;;;25.09;61.43;94996.25;5056209;28;20090;-80
2021/06/23 03:40:49;;;;;;;14.38;5.45;;;;;;;25.18;61.14;94987.69;5050713;28;20030;-83
2021/06/23 03:43:15;;;;;;;19.65;6.63;;;;;;;25.22;61.02;94999.06;5055966;28;20021;-82
2021/06/23 03:45:41;;;;;;;15.60;6.43;;;;;;;25.36;60.71;94995.09;5042553;28;20069;-83
2021/06/23 03:48:06;;;;;;;16.00;6.45;;;;;;;25.38;60.34;95003.50;5041658;28;20063;-79
2021/06/23 03:50:33;;;;;;;19.83;6.82;;;;;;;25.46;60.40;94996.16;5069757;28;20034;-78
2021/06/23 03:52:59;;;;;;;14.20;5.25;;;;;;;25.56;60.42;95002.69;5039656;28;20516;-81
2021/06/23 03:55:27;;;;;;;15.63;6.15;;;;;;;25.60;60.33;95001.13;5060908;28;20122;-82
2021/06/23 03:57:53;;;;;;;23.30;6.80;;;;;;;25.70;60.00;95010.41;5063374;28;20659;-81
2021/06/23 04:00:20;;;;;;;17.13;6.35;;;;;;;25.75;59.96;95006.13;5063747;28;20032;-82
2021/06/23 04:02:45;;;;;;;20.88;6.28;;;;;;;25.79;59.52;95009.28;5066816;28;20020;-80
2021/06/23 04:05:11;;;;;;;23.88;7.50;;;;;;;25.55;59.13;94960.22;5066878;28;20039;-80
2021/06/23 04:07:37;;;;;;;17.45;6.57;;;;;;;25.73;59.19;94992.97;5050676;28;20037;-80
2021/06/23 04:10:03;;;;;;;22.95;7.38;;;;;;;25.96;59.45;95015.91;5049282;28;20338;-80
2021/06/23 04:12:29;;;;;;;20.08;7.13;;;;;;;26.00;59.41;95011.59;5065991;28;20503;-79
2021/06/23 04:14:54;;;;;;;16.10;6.55;;;;;;;25.79;59.38;94984.66;5050687;28;20031;-79
2021/06/23 04:17:20;;;;;;;21.77;6.13;;;;;;;26.04;59.31;95014.75;5050126;28;20039;-80
2021/06/23 04:19:45;;;;;;;21.85;7.43;;;;;;;26.14;58.94;95021.28;5050270;28;21333;-74
2021/06/23 04:22:11;;;;;;;22.27;7.55;;;;;;;26.19;58.91;95031.41;5060794;28;20090;-73
2021/06/23 04:24:36;;;;;;;22.05;7.53;;;;;;;26.20;59.19;95030.09;5063254;28;20487;-79
2021/06/23 04:27:02;;;;;;;23.45;7.65;;;;;;;26.06;58.64;94993.06;5067483;28;20081;-79
2021/06/23 04:29:27;;;;;;;19.83;7.15;;;;;;;26.32;58.66;95026.69;5050209;28;20074;-77
2021/06/23 04:31:53;;;;;;;19.65;7.55;;;;;;;26.40;58.74;95032.25;5050529;28;20407;-82
2021/06/23 04:34:18;;;;;;;18.35;7.22;;;;;;;26.48;57.89;95033.06;5049644;28;20043;-81
2021/06/23 04:36:44;;;;;;;26.20;7.70;;;;;;;26.16;58.63;94990.63;5064217;28;20032;-84
2021/06/23 04:39:09;;;;;;;25.48;7.68;;;;;;;26.49;58.44;95031.81;5051821;28;20684;-81
2021/06/23 04:41:35;;;;;;;19.00;7.40;;;;;;;26.53;57.86;95024.00;5066607;28;20533;-80
2021/06/23 04:44:00;;;;;;;23.58;8.13;;;;;;;26.66;57.98;95032.94;5064190;28;20038;-87
2021/06/23 04:46:26;;;;;;;18.35;7.40;;;;;;;26.55;57.83;95021.47;5063545;28;20031;-81
2021/06/23 04:48:51;;;;;;;20.10;6.90;;;;;;;26.73;58.17;95042.53;5049006;28;20060;-85
2021/06/23 04:51:17;;;;;;;20.92;6.85;;;;;;;26.76;58.06;95040.16;5068223;28;20028;-83
2021/06/23 04:53:43;;;;;;;22.55;7.47;;;;;;;26.82;57.63;95034.59;5067835;28;20033;-80
2021/06/23 04:56:08;;;;;;;23.38;7.70;;;;;;;26.90;57.27;95044.38;5064312;28;20541;-83
2021/06/23 04:58:34;;;;;;;18.95;7.05;;;;;;;26.93;57.41;95040.56;5065793;28;20040;-80
2021/06/23 05:00:59;;;;;;;21.55;7.25;;;;;;;26.91;57.43;95032.16;5064390;28;20487;-80
2021/06/23 05:03:24;;;;;;;22.17;7.43;;;;;;;27.01;56.98;95052.38;5057900;28;20526;-80
2021/06/23 05:05:50;;;;;;;28.00;8.00;;;;;;;26.76;57.52;95004.56;5071058;28;20039;-78
2021/06/23 05:08:15;;;;;;;24.17;7.50;;;;;;;26.69;58.04;95003.75;5055204;28;20062;-84
2021/06/23 05:10:41;;;;;;;22.13;7.97;;;;;;;26.79;58.42;95055.56;5052139;28;20024;-84
2021/06/23 05:13:06;;;;;;;18.80;8.15;;;;;;;26.67;58.09;95017.25;5053931;28;20025;-87
2021/06/23 05:15:32;;;;;;;28.70;9.15;;;;;;;27.01;57.80;95055.13;5054790;28;20021;-85
2021/06/23 05:17:57;;;;;;;24.55;8.25;;;;;;;27.12;57.10;95057.59;5071429;28;20020;-84
2021/06/23 05:20:23;;;;;;;25.70;8.95;;;;;;;27.11;57.40;95055.38;5070240;28;20020;-84
2021/06/23 05:22:49;;;;;;;23.08;7.82;;;;;;;27.07;57.53;95044.75;5068202;28;20044;-87
2021/06/23 05:25:15;;;;;;;23.05;8.10;;;;;;;27.04;57.30;95056.78;5054394;28;20537;-85
2021/06/23 05:27:40;;;;;;;27.50;8.13;;;;;;;27.10;56.96;95054.66;5052296;28;20081;-85
2021/06/23 05:30:06;;;;;;;23.48;7.78;;;;;;;27.24;56.22;95047.84;5066242;28;20045;-82
2021/06/23 05:32:32;;;;;;;25.92;7.57;;;;;;;27.19;57.51;95051.47;5065668;28;20035;-82
2021/06/23 05:34:58;;;;;;;23.27;8.18;;;;;;;27.19;56.44;95048.72;5070019;28;20050;-84
2021/06/23 05:37:23;;;;;;;21.17;8.15;;;;;;;27.27;57.29;95049.53;5070520;28;20029;-82
2021/06/23 05:39:49;;;;;;;19.77;6.60;;;;;;;27.41;55.38;95050.94;5070874;28;20479;-81
2021/06/23 05:42:14;;;;;;;23.92;7.13;;;;;;;27.46;55.38;95052.81;5067713;28;20033;-86
2021/06/23 05:44:39;;;;;;;20.52;7.55;;;;;;;27.61;54.87;95052.97;5021993;28;20037;-83
2021/06/23 05:47:05;;;;;;;35.80;15.02;;;;;;;27.66;54.43;95054.84;5048023;28;20031;-78
2021/06/23 05:49:30;;;;;;;28.10;8.88;;;;;;;27.73;53.34;95044.66;5068521;28;20484;-82
2021/06/23 05:51:56;;;;;;;27.75;7.93;;;;;;;27.89;53.57;95051.00;5067960;28;20025;-78
2021/06/23 05:54:21;;;;;;;23.08;7.47;;;;;;;27.56;54.46;95018.91;5048470;28;20028;-78
2021/06/23 05:56:47;;;;;;;28.13;7.25;;;;;;;27.53;54.46;95014.47;5059742;28;20036;-87
2021/06/23 05:59:12;;;;;;;24.73;6.30;;;;;;;27.60;54.69;95035.03;5035581;28;20016;-88
2021/06/23 06:01:38;;;;;;;23.80;8.10;;;;;;;27.70;54.02;95022.28;5037095;28;20031;-82
2021/06/23 06:04:03;;;;;;;22.85;7.28;;;;;;;27.94;54.37;95064.59;5052007;28;20048;-81
2021/06/23 06:06:29;;;;;;;26.45;6.88;;;;;;;27.73;54.13;95021.22;5070897;28;20078;-86
2021/06/23 06:08:55;;;;;;;29.70;7.55;;;;;;;28.03;54.56;95066.84;5035228;28;20036;-85
2021/06/23 06:11:20;;;;;;;23.30;7.65;;;;;;;28.08;54.19;95057.72;5046175;28;20028;-83
2021/06/23 06:13:45;;;;;;;28.88;7.65;;;;;;;28.19;54.22;95057.47;5069422;28;20021;-83
2021/06/23 06:16:11;;;;;;;25.55;6.93;;;;;;;28.24;53.50;95056.59;5069302;28;20034;-82
2021/06/23 06:18:37;;;;;;;24.45;6.95;;;;;;;28.11;52.81;95023.72;5070548;28;20642;-82
2021/06/23 06:21:03;;;;;;;21.77;7.38;;;;;;;28.36;52.67;95063.25;5051604;28;20032;-84
2021/06/23 06:23:29;;;;;;;25.30;7.88;;;;;;;27.94;52.87;94995.94;5068416;28;20185;-86
2021/06/23 06:25:55;;;;;;;23.65;7.43;;;;;;;28.19;52.29;95029.25;5051363;28;20036;-82
2021/06/23 06:28:20;;;;;;;27.42;7.45;;;;;;;28.04;53.09;95029.88;5051403;28;20115;-78
2021/06/23 06:30:46;;;;;;;22.88;7.43;;;;;;;28.02;54.24;95065.38;5049272;28;20026;-78
2021/06/23 06:33:12;;;;;;;21.25;6.30;;;;;;;27.80;54.30;95071.44;5061252;28;20529;-78
2021/06/23 06:35:38;;;;;;;22.60;7.32;;;;;;;27.68;54.57;95068.75;5059456;28;20037;-78
2021/06/23 06:38:03;;;;;;;20.55;6.30;;;;;;;27.52;55.24;95069.88;5060923;28;20025;-78
2021/06/23 06:40:28;;;;;;;17.92;6.57;;;;;;;27.49;55.49;95073.69;5063744;28;20031;-77
2021/06/23 06:42:54;;;;;;;19.80;6.05;;;;;;;27.41;55.67;95072.88;5044555;28;20028;-77
2021/06/23 06:45:19;;;;;;;22.25;7.82;;;;;;;27.34;55.72;95073.56;5066854;28;20089;-78
2021/06/23 06:47:45;;;;;;;21.83;5.45;;;;;;;27.28;56.38;95079.16;5068555;28;20028;-78
2021/06/23 06:50:11;;;;;;;18.75;5.93;;;;;;;27.23;56.38;95078.53;5065903;28;20083;-78
2021/06/23 06:52:36;;;;;;;17.92;6.38;;;;;;;27.19;56.42;95083.63;5070062;28;20036;-78
2021/06/23 06:55:03;;;;;;;19.85;6.65;;;;;;;27.12;56.64;95074.03;5067216;28;20468;-78
2021/06/23 06:57:29;;;;;;;14.60;5.35;;;;;;;27.11;56.46;95077.31;5067147;28;20039;-77
2021/06/23 06:59:54;;;;;;;15.73;5.80;;;;;;;27.05;57.04;95077.44;5069069;28;20494;-78
2021/06/23 07:02:20;;;;;;;19.23;6.75;;;;;;;27.04;56.84;95081.47;5065821;28;20032;-78
2021/06/23 07:04:45;;;;;;;19.35;5.75;;;;;;;27.00;57.23;95089.25;5069121;28;20040;-78
2021/06/23 07:07:11;;;;;;;22.83;6.32;;;;;;;26.97;57.04;95084.84;5064158;28;20021;-78
2021/06/23 07:09:36;;;;;;;15.73;6.18;;;;;;;26.96;57.29;95083.38;5050112;28;20032;-77
2021/06/23 07:12:02;;;;;;;19.77;6.93;;;;;;;26.91;57.31;95076.00;5066643;28;20020;-77
2021/06/23 07:14:27;;;;;;;12.95;5.82;;;;;;;26.90;57.32;95079.28;5068054;28;20017;-77
2021/06/23 07:16:53;;;;;;;14.32;5.32;;;;;;;26.87;57.29;95081.03;5069649;28;20017;-77
2021/06/23 07:19:18;;;;;;;16.83;5.85;;;;;;;26.85;57.31;95078.09;5065458;28;20032;-77
2021/06/23 07:21:44;;;;;;;16.20;6.05;;;;;;;26.80;57.80;95081.69;5066299;28;20025;-78
2021/06/23 07:24:09;;;;;;;17.15;5.72;;;;;;;26.80;57.58;95075.47;5050840;28;20021;-78
2021/06/23 07:26:35;;;;;;;15.93;5.57;;;;;;;26.79;57.73;95080.22;5069583;28;20032;-78
2021/06/23 07:29:03;;;;;;;14.07;5.43;;;;;;;26.77;57.89;95077.28;5068607;28;20423;-77
2021/06/23 07:36:41;;;;;;;13.95;5.63;;;;;;;26.67;57.90;95061.09;5068854;28;20524;-77
2021/06/23 07:39:08;;;;;;;15.27;5.50;;;;;;;26.75;57.84;95075.59;5051569;28;20025;-77
2021/06/23 07:41:37;;;;;;;18.33;6.20;;;;;;;26.46;58.10;95046.56;5069332;28;20119;-78
2021/06/23 07:44:03;;;;;;;15.43;5.82;;;;;;;26.72;58.19;95073.91;5050797;28;20039;-78
2021/06/23 07:46:46;;;;;;;17.27;5.55;;;;;;;26.71;58.18;95077.91;5068136;28;20028;-78
2021/06/23 07:49:14;;;;;;;15.45;5.15;;;;;;;26.70;58.07;95076.47;5069203;28;20020;-78
2021/06/23 08:02:50;;;;;;;12.23;5.38;;;;;;;26.52;58.09;95063.63;5068768;28;20562;-77
2021/06/23 08:10:46;;;;;;;14.75;5.38;;;;;;;26.64;58.38;95084.78;5052599;28;20047;-79
2021/06/23 08:13:12;;;;;;;15.48;5.78;;;;;;;26.65;58.34;95091.00;5069137;28;20044;-78
2021/06/23 08:15:39;;;;;;;15.05;5.07;;;;;;;26.61;58.46;95085.13;5068674;28;20055;-78
2021/06/23 08:18:05;;;;;;;15.63;5.63;;;;;;;26.58;58.28;95089.63;5067720;28;20033;-78
2021/06/23 08:20:30;;;;;;;12.98;5.60;;;;;;;26.62;58.65;95092.03;5068304;28;20471;-78
2021/06/23 08:22:56;;;;;;;12.73;5.55;;;;;;;26.63;58.51;95094.25;5068351;28;20410;-77
2021/06/23 08:25:21;;;;;;;14.30;5.32;;;;;;;26.63;58.51;95088.06;5068411;28;21150;-78
2021/06/23 08:27:47;;;;;;;12.85;5.78;;;;;;;26.59;58.45;95093.09;5067972;28;20028;-76
2021/06/23 08:30:14;;;;;;;13.70;5.80;;;;;;;26.59;58.59;95087.63;5068408;28;20036;-76
2021/06/23 08:32:39;;;;;;;12.48;5.53;;;;;;;26.63;58.84;95096.28;5067999;28;20406;-77
2021/06/23 08:35:17;;;;;;;13.10;6.20;;;;;;;26.63;58.48;95093.53;5068393;28;20024;-78
2021/06/23 08:37:43;;;;;;;12.68;5.50;;;;;;;26.30;58.76;95045.63;5067374;28;20040;-79
2021/06/23 08:40:09;;;;;;;14.88;6.38;;;;;;;26.64;59.10;95090.25;5048889;28;20040;-78
2021/06/23 08:42:35;;;;;;;17.50;6.05;;;;;;;26.70;59.76;95098.38;5063538;28;20563;-76
2021/06/23 08:45:01;;;;;;;20.55;6.20;;;;;;;26.56;58.77;95074.97;5050537;28;20040;-77
2021/06/23 08:47:26;;;;;;;17.30;6.60;;;;;;;26.80;58.64;95100.88;5067158;28;20498;-76
2021/06/23 08:49:51;;;;;;;15.00;5.60;;;;;;;26.80;57.75;95098.16;5067059;28;20054;-76
2021/06/23 08:52:17;;;;;;;12.13;5.28;;;;;;;26.80;58.05;95092.66;5067781;28;20090;-75
2021/06/23 08:54:42;;;;;;;18.02;5.88;;;;;;;26.74;57.79;95098.78;5066934;28;20020;-73
2021/06/23 08:57:09;;;;;;;17.38;5.97;;;;;;;26.76;57.67;95101.75;5066539;28;20438;-73
2021/06/23 08:59:35;;;;;;;16.95;6.03;;;;;;;26.75;57.06;95097.53;5068613;28;20069;-73
2021/06/23 09:02:00;;;;;;;17.30;5.70;;;;;;;26.70;57.13;95092.91;5065332;28;20052;-74
2021/06/23 09:04:27;;;;;;;14.68;5.70;;;;;;;26.71;56.49;95095.09;5066212;28;20063;-75
2021/06/23 09:06:59;;;;;;;17.10;6.03;;;;;;;26.74;57.23;95096.03;5066216;28;20103;-73
2021/06/23 09:09:30;;;;;;;17.73;5.97;;;;;;;26.71;55.62;95100.59;5066749;28;20078;-73
2021/06/23 09:12:00;;;;;;;14.70;5.68;;;;;;;26.69;55.29;95103.09;5066721;28;20024;-72
2021/06/23 09:14:29;;;;;;;;;;;;;;;26.70;56.41;95098.38;5048541;28;20048;-76
2021/06/23 09:17:10;;;;;;;16.55;5.35;;;;;;;26.73;56.68;95094.59;5065131;28;19920;-79
2021/06/23 09:19:59;;;;;;;16.58;5.28;;;;;;;26.75;57.48;95094.78;5063916;28;20036;-73
2021/06/23 09:22:41;;;;;;;14.55;5.40;;;;;;;26.63;56.61;95101.75;5057810;28;20127;-73
2021/06/23 09:25:12;;;;;;;15.57;5.50;;;;;;;26.32;53.65;95102.59;5065691;28;20032;-75
2021/06/23 09:27:52;;;;;;;12.48;5.60;;;;;;;25.85;51.56;95104.41;5066285;28;20089;-73
2021/06/23 09:30:27;;;;;;;13.63;5.45;;;;;;;25.56;51.00;95103.88;5066302;28;20036;-73
2021/06/23 09:33:11;;;;;;;14.02;5.55;;;;;;;25.40;50.72;95096.69;5066212;28;20551;-73
2021/06/23 09:35:37;;;;;;;13.73;5.88;;;;;;;25.24;52.07;95094.19;5066599;28;20391;-75
2021/06/23 09:38:03;;;;;;;13.50;4.88;;;;;;;25.11;52.12;95103.09;5066131;28;20033;-73
2021/06/23 09:40:30;;;;;;;17.85;5.53;;;;;;;25.00;53.03;95097.75;5066059;28;20047;-73
2021/06/23 09:43:01;;;;;;;16.73;6.05;;;;;;;24.91;53.60;95095.34;5066003;28;20490;-75
2021/06/23 09:45:27;;;;;;;13.43;5.20;;;;;;;24.84;54.11;95095.97;5068765;28;20035;-73
2021/06/23 09:48:13;;;;;;;13.30;5.15;;;;;;;24.82;57.39;95097.00;5068740;28;20082;-73
2021/06/23 09:50:38;;;;;;;13.93;5.25;;;;;;;24.80;58.59;95088.56;5069360;28;20566;-72
2021/06/23 09:53:09;;;;;;;13.10;5.05;;;;;;;24.82;60.04;95097.00;5069492;28;20123;-72
2021/06/23 09:55:36;;;;;;;13.73;5.97;;;;;;;24.82;61.09;95093.00;5068712;28;20560;-74
2021/06/23 09:58:10;;;;;;;13.00;5.47;;;;;;;24.80;61.68;95088.56;5069011;28;20031;-72
2021/06/23 10:01:01;;;;;;;16.52;5.80;;;;;;;24.85;61.27;95091.22;5069842;28;20075;-74
2021/06/23 10:03:27;;;;;;;10.77;5.28;;;;;;;24.86;61.91;95093.44;5069585;28;20067;-74
2021/06/23 10:05:53;;;;;;;12.85;5.43;;;;;;;24.84;62.26;95101.44;5069421;28;20036;-74
2021/06/23 10:08:26;;;;;;;10.23;5.05;;;;;;;24.88;62.63;95090.19;5069157;28;20584;-72
2021/06/23 10:10:51;;;;;;;13.80;5.15;;;;;;;24.48;62.80;95038.59;5050310;28;20529;-74
2021/06/23 10:13:17;;;;;;;10.50;5.05;;;;;;;24.85;62.81;95091.97;5051975;28;20024;-74
2021/06/23 10:15:44;;;;;;;18.10;5.70;;;;;;;24.87;62.75;95088.72;5069548;28;20513;-76
2021/06/23 10:18:09;;;;;;;10.98;4.53;;;;;;;24.94;62.87;95093.59;5069903;28;20028;-76
2021/06/23 10:20:34;;;;;;;12.57;5.38;;;;;;;25.13;62.60;95089.63;5051468;28;20117;-74
2021/06/23 10:23:02;;;;;;;13.23;5.03;;;;;;;25.30;61.57;95092.84;5052140;28;20027;-75
2021/06/23 10:25:29;;;;;;;14.85;4.85;;;;;;;25.34;61.75;95079.63;5053185;28;20742;-77
2021/06/23 10:27:54;;;;;;;12.55;4.97;;;;;;;25.22;62.41;95047.53;5025425;28;20033;-77
2021/06/23 10:30:20;;;;;;;15.10;5.63;;;;;;;25.42;63.12;95061.34;5024010;28;20031;-73
2021/06/23 10:32:46;;;;;;;11.63;4.55;;;;;;;25.63;63.23;95081.41;5051221;28;20035;-78
2021/06/23 10:35:14;;;;;;;13.32;5.10;;;;;;;25.65;63.23;95070.69;5050953;28;20033;-77
2021/06/23 10:37:40;;;;;;;11.73;4.72;;;;;;;25.70;62.97;95083.56;5063213;28;20059;-75
2021/06/23 10:40:07;;;;;;;10.85;5.50;;;;;;;25.75;62.61;95082.72;5047293;28;20040;-78
2021/06/23 10:42:32;;;;;;;12.73;4.68;;;;;;;25.76;62.13;95067.78;5062553;28;20032;-76
2021/06/23 10:44:58;;;;;;;11.43;4.63;;;;;;;25.76;62.17;95060.31;5048556;28;20032;-75
2021/06/23 10:47:34;;;;;;;11.93;4.78;;;;;;;25.61;61.04;95029.94;5068384;28;20032;-79
2021/06/23 10:49:59;;;;;;;8.93;4.93;;;;;;;25.96;60.89;95070.63;5050963;28;20028;-76
2021/06/23 10:52:28;;;;;;;9.43;4.32;;;;;;;26.06;60.55;95069.69;5067104;28;20089;-77
2021/06/23 10:54:57;;;;;;;12.25;3.97;;;;;;;26.13;60.17;95074.56;5060366;28;20098;-75
2021/06/23 10:57:38;;;;;;;8.85;3.88;;;;;;;26.19;59.75;95072.47;5062142;28;20037;-76
2021/06/23 11:00:31;;;;;;;7.43;3.90;;;;;;;26.29;59.18;95081.72;5065512;28;20033;-75
2021/06/23 11:03:14;;;;;;;11.13;4.78;;;;;;;26.31;58.67;95065.53;5068863;28;20046;-75
2021/06/23 11:05:41;;;;;;;8.25;3.58;;;;;;;26.39;58.08;95075.31;5072106;28;20028;-75
2021/06/23 11:08:25;;;;;;;7.80;3.83;;;;;;;26.44;57.66;95079.22;5072139;28;20424;-80
2021/06/23 11:10:51;;;;;;;8.25;3.80;;;;;;;26.46;57.41;95084.91;5052164;28;20034;-75
2021/06/23 11:13:21;;;;;;;10.60;4.30;;;;;;;26.48;57.32;95071.41;5070620;28;20021;-74
2021/06/23 11:15:49;;;;;;;7.68;3.90;;;;;;;26.51;56.99;95060.13;5049969;28;20036;-74
2021/06/23 11:18:22;;;;;;;10.52;3.83;;;;;;;26.54;56.48;95080.25;5045321;28;20061;-74
2021/06/23 11:20:58;;;;;;;8.48;3.70;;;;;;;26.55;56.33;95070.78;5065854;28;20024;-74
2021/06/23 11:23:54;;;;;;;6.55;3.55;;;;;;;26.53;56.04;95076.78;5059839;28;20116;-74
2021/06/23 11:26:22;;;;;;;9.15;3.70;;;;;;;26.50;56.25;95074.34;5066843;28;20109;-74
2021/06/23 11:28:48;;;;;;;8.27;3.90;;;;;;;26.48;56.26;95079.63;5061258;28;20094;-74
2021/06/23 11:31:14;;;;;;;7.45;3.33;;;;;;;26.24;56.09;95041.50;5067012;28;20071;-74
2021/06/23 11:33:39;;;;;;;10.02;3.58;;;;;;;26.44;56.40;95066.28;5065938;28;20119;-74
2021/06/23 11:36:09;;;;;;;7.38;3.85;;;;;;;26.42;56.45;95059.84;5065899;28;20040;-74
2021/06/23 11:38:35;;;;;;;9.05;3.50;;;;;;;26.10;56.18;95011.91;5064108;28;20079;-75
2021/06/23 11:41:00;;;;;;;7.53;3.55;;;;;;;26.05;56.43;95018.97;5067304;28;20406;-74
2021/06/23 11:43:26;;;;;;;7.15;3.53;;;;;;;26.36;56.52;95072.91;5048775;28;20021;-74
2021/06/23 11:45:51;;;;;;;8.70;3.70;;;;;;;26.39;56.33;95063.63;5067152;28;20032;-74
2021/06/23 11:48:17;;;;;;;7.22;3.53;;;;;;;26.37;56.25;95071.66;5064426;28;20078;-74